sensor_id;sensor_type;location;lat;lon;timestamp;pressure;altitude;pressure_sealevel;temperature;humidity
28181;BME280;15464;50.988;10.318;2023-09-18T00:01:45;98471.25;;;16.66;99.56
28181;BME280;15464;50.988;10.318;2023-09-18T00:04:13;98473.09;;;16.66;99.60
28181;BME280;15464;50.988;10.318;2023-09-18T00:06:40;98458.41;;;16.62;100.00
28181;BME280;15464;50.988;10.318;2023-09-18T00:09:06;98462.56;;;16.64;100.00
28181;BME280;15464;50.988;10.318;2023-09-18T00:11:38;98455.94;;;16.60;100.00
28181;BME280;15464;50.988;10.318;2023-09-18T00:14:05;98458.09;;;16.57;100.00
28181;BME280;15464;50.988;10.318;2023-09-18T00:16:32;98453.28;;;16.52;100.00
28181;BME280;15464;50.988;10.318;2023-09-18T00:19:17;98440.25;;;16.49;100.00
28181;BME280;15464;50.988;10.318;2023-09-18T00:21:44;98436.38;;;16.51;100.00
28181;BME280;15464;50.988;10.318;2023-09-18T00:24:11;98424.38;;;16.47;100.00
28181;BME280;15464;50.988;10.318;2023-09-18T00:26:38;98422.22;;;16.43;100.00
28181;BME280;15464;50.988;10.318;2023-09-18T00:29:05;98417.59;;;16.37;100.00
28181;BME280;15464;50.988;10.318;2023-09-18T00:31:31;98418.78;;;16.34;100.00
28181;BME280;15464;50.988;10.318;2023-09-18T00:33:58;98413.78;;;16.31;100.00
28181;BME280;15464;50.988;10.318;2023-09-18T00:36:25;98409.66;;;16.29;100.00
28181;BME280;15464;50.988;10.318;2023-09-18T00:38:52;98406.31;;;16.27;100.00
28181;BME280;15464;50.988;10.318;2023-09-18T00:41:19;98402.97;;;16.25;100.00
28181;BME280;15464;50.988;10.318;2023-09-18T00:43:45;98395.31;;;16.22;100.00
28181;BME280;15464;50.988;10.318;2023-09-18T00:46:12;98392.25;;;16.25;100.00
28181;BME280;15464;50.988;10.318;2023-09-18T00:48:40;98384.91;;;16.27;100.00
28181;BME280;15464;50.988;10.318;2023-09-18T00:51:08;98379.94;;;16.24;100.00
28181;BME280;15464;50.988;10.318;2023-09-18T00:53:36;98384.31;;;16.17;100.00
28181;BME280;15464;50.988;10.318;2023-09-18T00:56:04;98384.69;;;16.13;100.00
28181;BME280;15464;50.988;10.318;2023-09-18T00:58:31;98383.00;;;16.12;100.00
28181;BME280;15464;50.988;10.318;2023-09-18T01:00:59;98375.19;;;16.11;100.00
28181;BME280;15464;50.988;10.318;2023-09-18T01:03:26;98374.34;;;16.10;100.00
28181;BME280;15464;50.988;10.318;2023-09-18T01:05:53;98370.16;;;16.08;100.00
28181;BME280;15464;50.988;10.318;2023-09-18T01:08:21;98373.03;;;16.06;100.00
28181;BME280;15464;50.988;10.318;2023-09-18T01:11:02;98364.38;;;16.04;100.00
28181;BME280;15464;50.988;10.318;2023-09-18T01:13:44;98357.53;;;16.02;100.00
28181;BME280;15464;50.988;10.318;2023-09-18T01:16:24;98358.69;;;15.99;100.00
28181;BME280;15464;50.988;10.318;2023-09-18T01:18:52;98354.38;;;15.98;100.00
28181;BME280;15464;50.988;10.318;2023-09-18T01:21:19;98357.06;;;15.98;100.00
28181;BME280;15464;50.988;10.318;2023-09-18T01:23:49;98354.38;;;15.98;100.00
28181;BME280;15464;50.988;10.318;2023-09-18T01:26:18;98353.06;;;15.94;100.00
28181;BME280;15464;50.988;10.318;2023-09-18T01:28:45;98351.75;;;15.90;100.00
28181;BME280;15464;50.988;10.318;2023-09-18T01:31:11;98351.28;;;15.87;100.00
28181;BME280;15464;50.988;10.318;2023-09-18T01:33:39;98352.47;;;15.84;100.00
28181;BME280;15464;50.988;10.318;2023-09-18T01:36:07;98343.63;;;15.84;100.00
28181;BME280;15464;50.988;10.318;2023-09-18T01:38:35;98330.97;;;15.78;100.00
28181;BME280;15464;50.988;10.318;2023-09-18T01:41:03;98344.88;;;15.73;100.00
28181;BME280;15464;50.988;10.318;2023-09-18T01:43:29;98334.91;;;15.67;100.00
28181;BME280;15464;50.988;10.318;2023-09-18T01:45:57;98337.56;;;15.67;100.00
28181;BME280;15464;50.988;10.318;2023-09-18T01:48:24;98341.88;;;15.68;100.00
28181;BME280;15464;50.988;10.318;2023-09-18T01:50:51;98342.59;;;15.62;100.00
28181;BME280;15464;50.988;10.318;2023-09-18T01:53:17;98343.56;;;15.69;100.00
28181;BME280;15464;50.988;10.318;2023-09-18T01:55:44;98351.94;;;15.66;100.00
28181;BME280;15464;50.988;10.318;2023-09-18T01:58:11;98355.25;;;15.68;100.00
28181;BME280;15464;50.988;10.318;2023-09-18T02:00:42;98344.25;;;15.63;100.00
28181;BME280;15464;50.988;10.318;2023-09-18T02:03:09;98334.69;;;15.68;100.00
28181;BME280;15464;50.988;10.318;2023-09-18T02:05:56;98337.88;;;15.72;100.00
28181;BME280;15464;50.988;10.318;2023-09-18T02:08:23;98335.53;;;15.69;100.00
28181;BME280;15464;50.988;10.318;2023-09-18T02:10:50;98338.41;;;15.67;100.00
28181;BME280;15464;50.988;10.318;2023-09-18T02:13:17;98340.59;;;15.64;100.00
28181;BME280;15464;50.988;10.318;2023-09-18T02:15:44;98347.59;;;15.65;100.00
28181;BME280;15464;50.988;10.318;2023-09-18T02:18:11;98337.91;;;15.64;100.00
28181;BME280;15464;50.988;10.318;2023-09-18T02:20:41;98339.28;;;15.60;100.00
28181;BME280;15464;50.988;10.318;2023-09-18T02:23:08;98333.09;;;15.59;100.00
28181;BME280;15464;50.988;10.318;2023-09-18T02:25:35;98342.97;;;15.59;100.00
28181;BME280;15464;50.988;10.318;2023-09-18T02:28:02;98335.25;;;15.64;100.00
28181;BME280;15464;50.988;10.318;2023-09-18T02:30:29;98329.22;;;15.62;100.00
28181;BME280;15464;50.988;10.318;2023-09-18T02:32:55;98327.59;;;15.61;100.00
28181;BME280;15464;50.988;10.318;2023-09-18T02:35:22;98323.25;;;15.60;100.00
28181;BME280;15464;50.988;10.318;2023-09-18T02:37:49;98310.88;;;15.59;100.00
28181;BME280;15464;50.988;10.318;2023-09-18T02:40:16;98308.22;;;15.59;100.00
28181;BME280;15464;50.988;10.318;2023-09-18T02:42:43;98304.69;;;15.58;100.00
28181;BME280;15464;50.988;10.318;2023-09-18T02:45:10;98297.41;;;15.52;100.00
28181;BME280;15464;50.988;10.318;2023-09-18T02:47:37;98286.84;;;15.51;100.00
28181;BME280;15464;50.988;10.318;2023-09-18T02:50:08;98287.38;;;15.54;100.00
28181;BME280;15464;50.988;10.318;2023-09-18T02:52:37;98285.69;;;15.53;100.00
28181;BME280;15464;50.988;10.318;2023-09-18T02:55:04;98284.16;;;15.59;100.00
28181;BME280;15464;50.988;10.318;2023-09-18T02:57:31;98292.13;;;15.67;100.00
28181;BME280;15464;50.988;10.318;2023-09-18T02:59:58;98280.88;;;15.71;100.00
28181;BME280;15464;50.988;10.318;2023-09-18T03:02:25;98281.34;;;15.75;100.00
28181;BME280;15464;50.988;10.318;2023-09-18T03:04:52;98279.31;;;15.77;100.00
28181;BME280;15464;50.988;10.318;2023-09-18T03:07:19;98268.47;;;15.79;100.00
28181;BME280;15464;50.988;10.318;2023-09-18T03:09:45;98263.94;;;15.79;100.00
28181;BME280;15464;50.988;10.318;2023-09-18T03:12:12;98262.28;;;15.78;100.00
28181;BME280;15464;50.988;10.318;2023-09-18T03:14:39;98264.78;;;15.80;100.00
28181;BME280;15464;50.988;10.318;2023-09-18T03:17:06;98258.59;;;15.79;100.00
28181;BME280;15464;50.988;10.318;2023-09-18T03:19:33;98249.91;;;15.77;100.00
28181;BME280;15464;50.988;10.318;2023-09-18T03:21:59;98244.94;;;15.74;100.00
28181;BME280;15464;50.988;10.318;2023-09-18T03:24:26;98238.56;;;15.75;100.00
28181;BME280;15464;50.988;10.318;2023-09-18T03:26:53;98234.88;;;15.76;100.00
28181;BME280;15464;50.988;10.318;2023-09-18T03:29:20;98239.94;;;15.71;100.00
28181;BME280;15464;50.988;10.318;2023-09-18T03:31:47;98229.97;;;15.65;100.00
28181;BME280;15464;50.988;10.318;2023-09-18T03:34:13;98226.28;;;15.66;100.00
28181;BME280;15464;50.988;10.318;2023-09-18T03:36:40;98230.41;;;15.68;100.00
28181;BME280;15464;50.988;10.318;2023-09-18T03:39:07;98230.81;;;15.65;100.00
28181;BME280;15464;50.988;10.318;2023-09-18T03:41:34;98220.56;;;15.69;100.00
28181;BME280;15464;50.988;10.318;2023-09-18T03:44:02;98219.72;;;15.68;100.00
28181;BME280;15464;50.988;10.318;2023-09-18T03:46:29;98222.41;;;15.68;100.00
28181;BME280;15464;50.988;10.318;2023-09-18T03:48:56;98214.28;;;15.62;100.00
28181;BME280;15464;50.988;10.318;2023-09-18T03:51:24;98208.00;;;15.55;100.00
28181;BME280;15464;50.988;10.318;2023-09-18T03:53:51;98214.03;;;15.49;100.00
28181;BME280;15464;50.988;10.318;2023-09-18T03:56:18;98214.38;;;15.54;100.00
28181;BME280;15464;50.988;10.318;2023-09-18T03:58:44;98211.81;;;15.60;100.00
28181;BME280;15464;50.988;10.318;2023-09-18T04:01:16;98203.94;;;15.59;100.00
28181;BME280;15464;50.988;10.318;2023-09-18T04:03:43;98201.38;;;15.65;100.00
28181;BME280;15464;50.988;10.318;2023-09-18T04:06:10;98194.75;;;15.61;100.00
28181;BME280;15464;50.988;10.318;2023-09-18T04:08:37;98208.69;;;15.49;100.00
28181;BME280;15464;50.988;10.318;2023-09-18T04:11:03;98213.38;;;15.47;100.00
28181;BME280;15464;50.988;10.318;2023-09-18T04:13:31;98208.84;;;15.55;100.00
28181;BME280;15464;50.988;10.318;2023-09-18T04:15:59;98195.66;;;15.54;100.00
28181;BME280;15464;50.988;10.318;2023-09-18T04:18:27;98203.97;;;15.51;100.00
28181;BME280;15464;50.988;10.318;2023-09-18T04:20:54;98205.38;;;15.47;100.00
28181;BME280;15464;50.988;10.318;2023-09-18T04:23:26;98281.44;;;15.36;100.00
28181;BME280;15464;50.988;10.318;2023-09-18T04:25:54;98269.97;;;15.27;100.00
28181;BME280;15464;50.988;10.318;2023-09-18T04:28:22;98278.28;;;15.32;100.00
28181;BME280;15464;50.988;10.318;2023-09-18T04:30:49;98262.38;;;15.39;100.00
28181;BME280;15464;50.988;10.318;2023-09-18T04:33:16;98253.44;;;15.55;100.00
28181;BME280;15464;50.988;10.318;2023-09-18T04:35:44;98233.94;;;15.69;100.00
28181;BME280;15464;50.988;10.318;2023-09-18T04:38:11;98227.22;;;15.73;100.00
28181;BME280;15464;50.988;10.318;2023-09-18T04:40:38;98209.34;;;15.88;100.00
28181;BME280;15464;50.988;10.318;2023-09-18T04:43:07;98202.25;;;15.95;100.00
28181;BME280;15464;50.988;10.318;2023-09-18T04:45:34;98191.84;;;16.00;100.00
28181;BME280;15464;50.988;10.318;2023-09-18T04:48:01;98189.44;;;16.05;100.00
28181;BME280;15464;50.988;10.318;2023-09-18T04:50:28;98183.00;;;16.14;100.00
28181;BME280;15464;50.988;10.318;2023-09-18T04:52:55;98184.09;;;16.20;100.00
28181;BME280;15464;50.988;10.318;2023-09-18T04:55:24;98199.16;;;16.36;100.00
28181;BME280;15464;50.988;10.318;2023-09-18T04:57:51;98196.56;;;16.42;100.00
28181;BME280;15464;50.988;10.318;2023-09-18T05:00:17;98183.53;;;16.54;100.00
28181;BME280;15464;50.988;10.318;2023-09-18T05:02:45;98184.25;;;16.63;100.00
28181;BME280;15464;50.988;10.318;2023-09-18T05:05:12;98172.44;;;16.72;100.00
28181;BME280;15464;50.988;10.318;2023-09-18T05:07:40;98156.69;;;16.83;100.00
28181;BME280;15464;50.988;10.318;2023-09-18T05:10:07;98141.34;;;16.92;100.00
28181;BME280;15464;50.988;10.318;2023-09-18T05:12:34;98144.97;;;17.06;100.00
28181;BME280;15464;50.988;10.318;2023-09-18T05:15:01;98159.47;;;17.11;100.00
28181;BME280;15464;50.988;10.318;2023-09-18T05:17:44;98141.78;;;17.17;100.00
28181;BME280;15464;50.988;10.318;2023-09-18T05:20:19;98142.28;;;17.27;100.00
28181;BME280;15464;50.988;10.318;2023-09-18T05:22:45;98127.09;;;17.34;100.00
28181;BME280;15464;50.988;10.318;2023-09-18T05:25:13;98111.00;;;17.34;100.00
28181;BME280;15464;50.988;10.318;2023-09-18T05:27:42;98107.59;;;17.47;100.00
28181;BME280;15464;50.988;10.318;2023-09-18T05:30:19;98103.94;;;17.54;100.00
28181;BME280;15464;50.988;10.318;2023-09-18T05:32:49;98105.19;;;17.58;100.00
28181;BME280;15464;50.988;10.318;2023-09-18T05:35:16;98114.34;;;17.64;100.00
28181;BME280;15464;50.988;10.318;2023-09-18T05:37:43;98110.47;;;17.66;100.00
28181;BME280;15464;50.988;10.318;2023-09-18T05:40:12;98103.03;;;17.68;100.00
28181;BME280;15464;50.988;10.318;2023-09-18T05:42:41;98096.25;;;17.72;100.00
28181;BME280;15464;50.988;10.318;2023-09-18T05:45:13;98098.53;;;17.76;100.00
28181;BME280;15464;50.988;10.318;2023-09-18T05:47:41;98103.91;;;17.76;100.00
28181;BME280;15464;50.988;10.318;2023-09-18T05:50:10;98107.88;;;17.80;100.00
28181;BME280;15464;50.988;10.318;2023-09-18T05:52:45;98091.34;;;17.83;100.00
28181;BME280;15464;50.988;10.318;2023-09-18T05:55:14;98094.91;;;17.90;100.00
28181;BME280;15464;50.988;10.318;2023-09-18T05:57:41;98093.28;;;17.95;100.00
28181;BME280;15464;50.988;10.318;2023-09-18T06:00:09;98084.25;;;18.03;100.00
28181;BME280;15464;50.988;10.318;2023-09-18T06:02:40;98089.19;;;18.06;100.00
28181;BME280;15464;50.988;10.318;2023-09-18T06:05:07;98092.53;;;18.08;100.00
28181;BME280;15464;50.988;10.318;2023-09-18T06:07:38;98087.56;;;18.05;100.00
28181;BME280;15464;50.988;10.318;2023-09-18T06:10:05;98092.13;;;18.11;100.00
28181;BME280;15464;50.988;10.318;2023-09-18T06:12:32;98088.00;;;18.15;100.00
28181;BME280;15464;50.988;10.318;2023-09-18T06:14:59;98100.00;;;18.19;100.00
28181;BME280;15464;50.988;10.318;2023-09-18T06:17:26;98095.91;;;18.23;100.00
28181;BME280;15464;50.988;10.318;2023-09-18T06:19:53;98097.56;;;18.31;100.00
28181;BME280;15464;50.988;10.318;2023-09-18T06:22:20;98085.44;;;18.41;100.00
28181;BME280;15464;50.988;10.318;2023-09-18T06:24:46;98089.38;;;18.52;100.00
28181;BME280;15464;50.988;10.318;2023-09-18T06:27:13;98100.59;;;18.62;100.00
28181;BME280;15464;50.988;10.318;2023-09-18T06:29:40;98095.91;;;18.84;97.53
28181;BME280;15464;50.988;10.318;2023-09-18T06:32:09;98085.38;;;19.02;94.26
28181;BME280;15464;50.988;10.318;2023-09-18T06:34:35;98070.69;;;19.24;89.82
28181;BME280;15464;50.988;10.318;2023-09-18T06:37:02;98047.75;;;19.35;89.91
28181;BME280;15464;50.988;10.318;2023-09-18T06:39:32;98054.56;;;19.38;91.05
28181;BME280;15464;50.988;10.318;2023-09-18T06:41:59;98038.88;;;19.48;89.69
28181;BME280;15464;50.988;10.318;2023-09-18T06:44:26;98038.63;;;19.62;87.48
28181;BME280;15464;50.988;10.318;2023-09-18T06:46:53;98031.16;;;19.71;84.97
28181;BME280;15464;50.988;10.318;2023-09-18T06:49:20;98046.47;;;19.77;86.46
28181;BME280;15464;50.988;10.318;2023-09-18T06:51:47;98065.28;;;19.84;84.96
28181;BME280;15464;50.988;10.318;2023-09-18T06:54:14;98072.31;;;19.91;85.87
28181;BME280;15464;50.988;10.318;2023-09-18T06:56:41;98073.97;;;19.92;86.01
28181;BME280;15464;50.988;10.318;2023-09-18T06:59:11;98081.59;;;20.02;83.91
28181;BME280;15464;50.988;10.318;2023-09-18T07:01:40;98081.13;;;20.11;82.58
28181;BME280;15464;50.988;10.318;2023-09-18T07:04:08;98081.50;;;20.22;82.89
28181;BME280;15464;50.988;10.318;2023-09-18T07:06:36;98072.78;;;20.26;82.12
28181;BME280;15464;50.988;10.318;2023-09-18T07:09:04;98079.19;;;20.38;81.46
28181;BME280;15464;50.988;10.318;2023-09-18T07:11:34;98083.91;;;20.43;81.39
28181;BME280;15464;50.988;10.318;2023-09-18T07:14:01;98088.88;;;20.52;80.85
28181;BME280;15464;50.988;10.318;2023-09-18T07:16:29;98077.44;;;20.57;81.35
28181;BME280;15464;50.988;10.318;2023-09-18T07:18:56;98081.38;;;20.61;81.76
28181;BME280;15464;50.988;10.318;2023-09-18T07:21:22;98088.97;;;20.71;81.94
28181;BME280;15464;50.988;10.318;2023-09-18T07:23:49;98088.09;;;20.77;80.91
28181;BME280;15464;50.988;10.318;2023-09-18T07:26:17;98075.00;;;20.80;80.02
28181;BME280;15464;50.988;10.318;2023-09-18T07:28:43;98081.63;;;20.84;79.71
28181;BME280;15464;50.988;10.318;2023-09-18T07:31:11;98084.91;;;20.86;80.13
28181;BME280;15464;50.988;10.318;2023-09-18T07:33:38;98099.84;;;20.89;81.02
28181;BME280;15464;50.988;10.318;2023-09-18T07:36:06;98099.88;;;20.82;79.58
28181;BME280;15464;50.988;10.318;2023-09-18T07:38:32;98120.84;;;20.80;80.09
28181;BME280;15464;50.988;10.318;2023-09-18T07:40:59;98125.19;;;20.81;80.20
28181;BME280;15464;50.988;10.318;2023-09-18T07:43:26;98123.53;;;20.80;80.98
28181;BME280;15464;50.988;10.318;2023-09-18T07:45:53;98125.88;;;20.70;81.28
28181;BME280;15464;50.988;10.318;2023-09-18T07:48:24;98135.38;;;20.79;80.49
28181;BME280;15464;50.988;10.318;2023-09-18T07:50:51;98142.66;;;20.72;81.60
28181;BME280;15464;50.988;10.318;2023-09-18T07:53:18;98139.41;;;20.57;81.25
28181;BME280;15464;50.988;10.318;2023-09-18T07:55:48;98125.94;;;20.57;82.49
28181;BME280;15464;50.988;10.318;2023-09-18T07:58:15;98116.59;;;20.60;82.17
28181;BME280;15464;50.988;10.318;2023-09-18T08:00:42;98113.72;;;20.61;82.06
28181;BME280;15464;50.988;10.318;2023-09-18T08:03:09;98105.19;;;20.64;82.05
28181;BME280;15464;50.988;10.318;2023-09-18T08:05:36;98111.41;;;20.65;81.46
28181;BME280;15464;50.988;10.318;2023-09-18T08:08:03;98106.59;;;20.73;81.66
28181;BME280;15464;50.988;10.318;2023-09-18T08:10:32;98119.00;;;20.74;81.52
28181;BME280;15464;50.988;10.318;2023-09-18T08:12:59;98109.09;;;20.68;81.07
28181;BME280;15464;50.988;10.318;2023-09-18T08:15:26;98113.22;;;20.71;81.31
28181;BME280;15464;50.988;10.318;2023-09-18T08:17:53;98116.31;;;20.74;81.69
28181;BME280;15464;50.988;10.318;2023-09-18T08:20:21;98118.78;;;20.76;81.91
28181;BME280;15464;50.988;10.318;2023-09-18T08:22:48;98117.72;;;20.83;81.21
28181;BME280;15464;50.988;10.318;2023-09-18T08:25:15;98111.13;;;20.79;80.55
28181;BME280;15464;50.988;10.318;2023-09-18T08:27:42;98105.91;;;20.84;81.08
28181;BME280;15464;50.988;10.318;2023-09-18T08:30:12;98107.97;;;20.82;81.87
28181;BME280;15464;50.988;10.318;2023-09-18T08:32:41;98113.13;;;20.90;81.12
28181;BME280;15464;50.988;10.318;2023-09-18T08:35:09;98110.59;;;20.96;79.86
28181;BME280;15464;50.988;10.318;2023-09-18T08:37:36;98126.28;;;21.05;80.46
28181;BME280;15464;50.988;10.318;2023-09-18T08:40:03;98133.72;;;21.10;78.86
28181;BME280;15464;50.988;10.318;2023-09-18T08:42:39;98145.72;;;21.20;79.27
28181;BME280;15464;50.988;10.318;2023-09-18T08:45:08;98154.59;;;21.27;79.31
28181;BME280;15464;50.988;10.318;2023-09-18T08:47:39;98155.16;;;21.36;78.84
28181;BME280;15464;50.988;10.318;2023-09-18T08:50:09;98163.19;;;21.43;78.53
28181;BME280;15464;50.988;10.318;2023-09-18T08:52:37;98152.19;;;21.44;78.45
28181;BME280;15464;50.988;10.318;2023-09-18T08:55:04;98158.34;;;21.51;77.90
28181;BME280;15464;50.988;10.318;2023-09-18T08:57:36;98161.38;;;21.61;77.82
28181;BME280;15464;50.988;10.318;2023-09-18T09:00:04;98159.03;;;21.71;77.57
28181;BME280;15464;50.988;10.318;2023-09-18T09:02:34;98156.69;;;21.75;77.55
28181;BME280;15464;50.988;10.318;2023-09-18T09:05:01;98152.28;;;21.81;75.66
28181;BME280;15464;50.988;10.318;2023-09-18T09:07:28;98159.88;;;21.90;75.39
28181;BME280;15464;50.988;10.318;2023-09-18T09:09:57;98150.34;;;21.88;73.55
28181;BME280;15464;50.988;10.318;2023-09-18T09:12:47;98161.31;;;21.93;75.15
28181;BME280;15464;50.988;10.318;2023-09-18T09:15:15;98158.97;;;22.03;74.97
28181;BME280;15464;50.988;10.318;2023-09-18T09:20:18;98162.72;;;22.20;75.66
28181;BME280;15464;50.988;10.318;2023-09-18T09:22:45;98163.50;;;22.27;74.39
28181;BME280;15464;50.988;10.318;2023-09-18T09:25:24;98162.22;;;22.30;75.45
28181;BME280;15464;50.988;10.318;2023-09-18T09:27:54;98165.16;;;22.28;74.97
28181;BME280;15464;50.988;10.318;2023-09-18T09:30:24;98151.63;;;22.46;74.81
28181;BME280;15464;50.988;10.318;2023-09-18T09:32:52;98140.19;;;22.63;74.88
28181;BME280;15464;50.988;10.318;2023-09-18T09:37:50;98130.91;;;22.77;72.91
28181;BME280;15464;50.988;10.318;2023-09-18T09:40:19;98134.16;;;22.97;73.00
28181;BME280;15464;50.988;10.318;2023-09-18T09:42:46;98122.22;;;22.86;69.43
28181;BME280;15464;50.988;10.318;2023-09-18T09:45:15;98127.13;;;23.08;71.29
28181;BME280;15464;50.988;10.318;2023-09-18T09:47:42;98117.66;;;23.28;71.10
28181;BME280;15464;50.988;10.318;2023-09-18T09:50:11;98101.06;;;23.37;69.27
28181;BME280;15464;50.988;10.318;2023-09-18T09:52:44;98109.53;;;23.28;69.09
28181;BME280;15464;50.988;10.318;2023-09-18T09:57:49;98118.59;;;23.22;69.49
28181;BME280;15464;50.988;10.318;2023-09-18T10:00:16;98128.34;;;23.23;68.33
28181;BME280;15464;50.988;10.318;2023-09-18T10:03:06;98112.91;;;23.12;64.16
28181;BME280;15464;50.988;10.318;2023-09-18T10:05:37;98118.59;;;23.22;65.73
28181;BME280;15464;50.988;10.318;2023-09-18T10:08:25;98127.59;;;23.05;64.47
28181;BME280;15464;50.988;10.318;2023-09-18T10:10:55;98111.00;;;23.01;65.10
28181;BME280;15464;50.988;10.318;2023-09-18T10:13:33;98110.72;;;22.91;65.46
28181;BME280;15464;50.988;10.318;2023-09-18T10:16:04;98117.13;;;23.08;66.06
28181;BME280;15464;50.988;10.318;2023-09-18T10:21:26;98110.88;;;23.08;65.78
28181;BME280;15464;50.988;10.318;2023-09-18T10:24:23;98112.03;;;23.00;66.00
28181;BME280;15464;50.988;10.318;2023-09-18T10:27:01;98109.63;;;23.10;65.67
28181;BME280;15464;50.988;10.318;2023-09-18T10:29:33;98107.22;;;23.02;66.17
28181;BME280;15464;50.988;10.318;2023-09-18T10:32:05;98120.44;;;23.10;66.17
28181;BME280;15464;50.988;10.318;2023-09-18T10:34:35;98123.38;;;23.09;65.91
28181;BME280;15464;50.988;10.318;2023-09-18T10:37:03;98110.16;;;23.01;66.05
28181;BME280;15464;50.988;10.318;2023-09-18T10:39:38;98111.25;;;23.11;65.83
28181;BME280;15464;50.988;10.318;2023-09-18T10:42:09;98111.81;;;23.02;65.88
28181;BME280;15464;50.988;10.318;2023-09-18T10:44:36;98122.50;;;22.97;65.67
28181;BME280;15464;50.988;10.318;2023-09-18T10:47:08;98117.50;;;22.82;65.62
28181;BME280;15464;50.988;10.318;2023-09-18T10:49:35;98119.41;;;22.93;66.35
28181;BME280;15464;50.988;10.318;2023-09-18T10:52:02;98123.22;;;22.92;66.43
28181;BME280;15464;50.988;10.318;2023-09-18T10:54:31;98131.53;;;22.90;67.11
28181;BME280;15464;50.988;10.318;2023-09-18T10:56:58;98131.91;;;22.94;67.25
28181;BME280;15464;50.988;10.318;2023-09-18T10:59:27;98123.38;;;23.09;66.35
28181;BME280;15464;50.988;10.318;2023-09-18T11:01:54;98138.41;;;22.75;66.87
28181;BME280;15464;50.988;10.318;2023-09-18T11:04:23;98129.94;;;22.53;66.74
28181;BME280;15464;50.988;10.318;2023-09-18T11:09:24;98147.56;;;22.37;67.83
28181;BME280;15464;50.988;10.318;2023-09-18T11:14:56;98153.22;;;22.54;68.82
28181;BME280;15464;50.988;10.318;2023-09-18T11:17:34;98150.59;;;22.47;68.67
28181;BME280;15464;50.988;10.318;2023-09-18T11:20:09;98149.97;;;22.45;68.68
28181;BME280;15464;50.988;10.318;2023-09-18T11:22:40;98170.53;;;22.46;69.10
28181;BME280;15464;50.988;10.318;2023-09-18T11:27:57;98174.75;;;22.42;69.75
28181;BME280;15464;50.988;10.318;2023-09-18T11:30:25;98184.50;;;22.43;68.30
28181;BME280;15464;50.988;10.318;2023-09-18T11:32:52;98188.56;;;22.52;68.93
28181;BME280;15464;50.988;10.318;2023-09-18T11:35:20;98188.56;;;22.52;67.71
28181;BME280;15464;50.988;10.318;2023-09-18T11:37:47;98176.69;;;22.72;68.06
28181;BME280;15464;50.988;10.318;2023-09-18T11:40:36;98186.16;;;22.81;68.76
28181;BME280;15464;50.988;10.318;2023-09-18T11:43:27;98174.75;;;22.79;68.83
28181;BME280;15464;50.988;10.318;2023-09-18T11:45:59;98167.38;;;22.68;68.53
28181;BME280;15464;50.988;10.318;2023-09-18T11:48:27;98168.34;;;22.55;68.60
28181;BME280;15464;50.988;10.318;2023-09-18T11:50:57;98164.03;;;22.54;69.59
28181;BME280;15464;50.988;10.318;2023-09-18T11:53:27;98162.88;;;22.43;69.55
28181;BME280;15464;50.988;10.318;2023-09-18T11:55:54;98159.44;;;22.55;69.60
28181;BME280;15464;50.988;10.318;2023-09-18T11:58:22;98157.72;;;22.60;70.16
28181;BME280;15464;50.988;10.318;2023-09-18T12:00:53;98155.84;;;22.61;69.91
28181;BME280;15464;50.988;10.318;2023-09-18T12:03:21;98179.78;;;22.57;69.88
28181;BME280;15464;50.988;10.318;2023-09-18T12:05:58;98187.75;;;22.52;72.02
28181;BME280;15464;50.988;10.318;2023-09-18T12:08:26;98181.78;;;22.62;71.05
28181;BME280;15464;50.988;10.318;2023-09-18T12:10:56;98174.50;;;22.62;69.54
28181;BME280;15464;50.988;10.318;2023-09-18T12:13:27;98171.59;;;22.64;70.13
28181;BME280;15464;50.988;10.318;2023-09-18T12:16:12;98187.53;;;22.53;70.87
28181;BME280;15464;50.988;10.318;2023-09-18T12:18:45;98188.94;;;22.38;70.32
28181;BME280;15464;50.988;10.318;2023-09-18T12:21:15;98201.81;;;22.18;71.34
28181;BME280;15464;50.988;10.318;2023-09-18T12:23:44;98201.91;;;22.11;71.63
28181;BME280;15464;50.988;10.318;2023-09-18T12:26:13;98193.28;;;22.21;71.87
28181;BME280;15464;50.988;10.318;2023-09-18T12:28:41;98199.34;;;22.16;72.70
28181;BME280;15464;50.988;10.318;2023-09-18T12:31:11;98188.84;;;22.08;72.77
28181;BME280;15464;50.988;10.318;2023-09-18T12:33:39;98189.31;;;22.23;72.71
28181;BME280;15464;50.988;10.318;2023-09-18T12:36:08;98177.63;;;22.29;72.25
28181;BME280;15464;50.988;10.318;2023-09-18T12:38:35;98184.97;;;22.40;72.30
28181;BME280;15464;50.988;10.318;2023-09-18T12:41:04;98186.91;;;22.33;72.12
28181;BME280;15464;50.988;10.318;2023-09-18T12:43:39;98188.72;;;22.39;72.36
28181;BME280;15464;50.988;10.318;2023-09-18T12:46:08;98190.66;;;22.32;71.79
28181;BME280;15464;50.988;10.318;2023-09-18T12:48:39;98197.09;;;22.31;71.78
28181;BME280;15464;50.988;10.318;2023-09-18T12:51:13;98187.25;;;22.19;72.73
28181;BME280;15464;50.988;10.318;2023-09-18T12:53:41;98176.31;;;22.32;71.95
28181;BME280;15464;50.988;10.318;2023-09-18T12:56:11;98185.03;;;22.34;71.87
28181;BME280;15464;50.988;10.318;2023-09-18T12:58:42;98174.00;;;22.53;70.24
28181;BME280;15464;50.988;10.318;2023-09-18T13:01:29;98180.16;;;22.61;70.46
28181;BME280;15464;50.988;10.318;2023-09-18T13:03:55;98192.31;;;22.51;70.52
28181;BME280;15464;50.988;10.318;2023-09-18T13:06:24;98206.13;;;22.62;71.21
28181;BME280;15464;50.988;10.318;2023-09-18T13:08:51;98192.72;;;22.73;71.00
28181;BME280;15464;50.988;10.318;2023-09-18T13:11:20;98213.66;;;22.78;70.02
28181;BME280;15464;50.988;10.318;2023-09-18T13:13:57;98215.88;;;22.63;71.71